sensor_id;sensor_type;location;lat;lon;timestamp;P1;durP1;ratioP1;P2;durP2;ratioP2
55150;SDS011;41041;43.162;20.538;2022-12-08T00:01:35;14.35;;;9.90;;
55150;SDS011;41041;43.162;20.538;2022-12-08T00:04:02;11.68;;;7.80;;
55150;SDS011;41041;43.162;20.538;2022-12-08T00:06:30;12.82;;;8.40;;
55150;SDS011;41041;43.162;20.538;2022-12-08T00:09:16;23.80;;;14.30;;
55150;SDS011;41041;43.162;20.538;2022-12-08T00:11:46;17.27;;;10.50;;
55150;SDS011;41041;43.162;20.538;2022-12-08T00:14:12;14.02;;;9.48;;
55150;SDS011;41041;43.162;20.538;2022-12-08T00:16:38;14.75;;;8.52;;
55150;SDS011;41041;43.162;20.538;2022-12-08T00:19:04;15.00;;;8.85;;
55150;SDS011;41041;43.162;20.538;2022-12-08T00:21:30;15.25;;;8.55;;
55150;SDS011;41041;43.162;20.538;2022-12-08T00:23:56;13.93;;;8.45;;
55150;SDS011;41041;43.162;20.538;2022-12-08T00:26:22;17.58;;;8.95;;
55150;SDS011;41041;43.162;20.538;2022-12-08T00:28:48;16.50;;;8.55;;
55150;SDS011;41041;43.162;20.538;2022-12-08T00:31:14;16.17;;;7.90;;
55150;SDS011;41041;43.162;20.538;2022-12-08T00:33:40;14.55;;;8.98;;
55150;SDS011;41041;43.162;20.538;2022-12-08T00:36:07;14.13;;;8.70;;
55150;SDS011;41041;43.162;20.538;2022-12-08T00:38:33;16.38;;;8.50;;
55150;SDS011;41041;43.162;20.538;2022-12-08T00:41:00;11.43;;;7.82;;
55150;SDS011;41041;43.162;20.538;2022-12-08T00:43:26;16.10;;;8.73;;
55150;SDS011;41041;43.162;20.538;2022-12-08T00:46:00;13.52;;;8.63;;
55150;SDS011;41041;43.162;20.538;2022-12-08T00:48:26;12.27;;;8.20;;
55150;SDS011;41041;43.162;20.538;2022-12-08T00:50:52;13.32;;;7.97;;
55150;SDS011;41041;43.162;20.538;2022-12-08T00:53:18;11.70;;;8.05;;
55150;SDS011;41041;43.162;20.538;2022-12-08T00:55:44;11.73;;;7.93;;
55150;SDS011;41041;43.162;20.538;2022-12-08T00:58:10;12.95;;;8.70;;
55150;SDS011;41041;43.162;20.538;2022-12-08T01:00:39;12.05;;;7.95;;
55150;SDS011;41041;43.162;20.538;2022-12-08T01:03:08;13.05;;;7.80;;
55150;SDS011;41041;43.162;20.538;2022-12-08T01:05:34;14.15;;;8.63;;
55150;SDS011;41041;43.162;20.538;2022-12-08T01:08:00;11.73;;;7.80;;
55150;SDS011;41041;43.162;20.538;2022-12-08T01:10:26;12.30;;;8.23;;
55150;SDS011;41041;43.162;20.538;2022-12-08T01:12:54;14.93;;;8.55;;
55150;SDS011;41041;43.162;20.538;2022-12-08T01:15:20;13.63;;;8.15;;
55150;SDS011;41041;43.162;20.538;2022-12-08T01:17:46;18.35;;;9.63;;
55150;SDS011;41041;43.162;20.538;2022-12-08T01:20:12;12.63;;;7.68;;
55150;SDS011;41041;43.162;20.538;2022-12-08T01:22:38;14.60;;;8.48;;
55150;SDS011;41041;43.162;20.538;2022-12-08T01:25:04;12.85;;;8.70;;
55150;SDS011;41041;43.162;20.538;2022-12-08T01:27:30;15.43;;;8.02;;
55150;SDS011;41041;43.162;20.538;2022-12-08T01:29:56;12.80;;;8.38;;
55150;SDS011;41041;43.162;20.538;2022-12-08T01:32:22;15.10;;;8.90;;
55150;SDS011;41041;43.162;20.538;2022-12-08T01:34:48;12.35;;;7.97;;
55150;SDS011;41041;43.162;20.538;2022-12-08T01:37:14;13.15;;;8.15;;
55150;SDS011;41041;43.162;20.538;2022-12-08T01:39:41;14.80;;;8.02;;
55150;SDS011;41041;43.162;20.538;2022-12-08T01:42:24;14.93;;;7.93;;
55150;SDS011;41041;43.162;20.538;2022-12-08T01:45:32;12.48;;;8.27;;
55150;SDS011;41041;43.162;20.538;2022-12-08T01:47:54;10.80;;;7.50;;
55150;SDS011;41041;43.162;20.538;2022-12-08T01:50:21;11.45;;;7.55;;
55150;SDS011;41041;43.162;20.538;2022-12-08T01:52:49;13.80;;;7.60;;
55150;SDS011;41041;43.162;20.538;2022-12-08T01:58:20;13.48;;;8.77;;
55150;SDS011;41041;43.162;20.538;2022-12-08T02:00:48;15.70;;;8.23;;
55150;SDS011;41041;43.162;20.538;2022-12-08T02:03:23;11.98;;;8.10;;
55150;SDS011;41041;43.162;20.538;2022-12-08T02:05:53;12.55;;;7.18;;
55150;SDS011;41041;43.162;20.538;2022-12-08T02:08:19;10.63;;;7.38;;
55150;SDS011;41041;43.162;20.538;2022-12-08T02:10:45;12.85;;;8.07;;
55150;SDS011;41041;43.162;20.538;2022-12-08T02:13:14;15.82;;;9.98;;
55150;SDS011;41041;43.162;20.538;2022-12-08T02:20:52;15.30;;;10.15;;
55150;SDS011;41041;43.162;20.538;2022-12-08T02:26:21;17.17;;;10.05;;
55150;SDS011;41041;43.162;20.538;2022-12-08T02:37:26;14.43;;;9.30;;
55150;SDS011;41041;43.162;20.538;2022-12-08T02:42:56;15.93;;;10.40;;
55150;SDS011;41041;43.162;20.538;2022-12-08T02:45:24;15.02;;;10.25;;
55150;SDS011;41041;43.162;20.538;2022-12-08T02:47:53;15.55;;;9.73;;
55150;SDS011;41041;43.162;20.538;2022-12-08T02:50:19;13.93;;;8.40;;
55150;SDS011;41041;43.162;20.538;2022-12-08T02:52:46;12.13;;;8.55;;
55150;SDS011;41041;43.162;20.538;2022-12-08T02:55:20;13.48;;;8.10;;
55150;SDS011;41041;43.162;20.538;2022-12-08T03:00:16;12.15;;;8.10;;
55150;SDS011;41041;43.162;20.538;2022-12-08T03:02:45;14.80;;;8.30;;
55150;SDS011;41041;43.162;20.538;2022-12-08T03:10:38;13.73;;;8.77;;
55150;SDS011;41041;43.162;20.538;2022-12-08T03:13:14;13.80;;;8.18;;
55150;SDS011;41041;43.162;20.538;2022-12-08T03:15:44;13.13;;;8.73;;
55150;SDS011;41041;43.162;20.538;2022-12-08T03:18:14;14.57;;;8.90;;
55150;SDS011;41041;43.162;20.538;2022-12-08T03:20:42;14.18;;;8.80;;
55150;SDS011;41041;43.162;20.538;2022-12-08T03:23:12;14.00;;;9.93;;
55150;SDS011;41041;43.162;20.538;2022-12-08T03:25:42;16.20;;;9.47;;
55150;SDS011;41041;43.162;20.538;2022-12-08T03:28:12;16.88;;;9.27;;
55150;SDS011;41041;43.162;20.538;2022-12-08T03:30:38;17.02;;;9.25;;
55150;SDS011;41041;43.162;20.538;2022-12-08T03:33:13;12.25;;;8.23;;
55150;SDS011;41041;43.162;20.538;2022-12-08T03:35:44;15.85;;;10.07;;
55150;SDS011;41041;43.162;20.538;2022-12-08T03:38:18;12.95;;;8.75;;
55150;SDS011;41041;43.162;20.538;2022-12-08T03:40:44;12.75;;;8.50;;
55150;SDS011;41041;43.162;20.538;2022-12-08T03:43:29;17.73;;;9.40;;
55150;SDS011;41041;43.162;20.538;2022-12-08T03:45:55;13.27;;;9.00;;
55150;SDS011;41041;43.162;20.538;2022-12-08T03:48:21;18.30;;;9.20;;
55150;SDS011;41041;43.162;20.538;2022-12-08T03:50:46;14.27;;;9.40;;
55150;SDS011;41041;43.162;20.538;2022-12-08T03:53:12;12.90;;;9.05;;
55150;SDS011;41041;43.162;20.538;2022-12-08T03:55:37;15.35;;;9.60;;
55150;SDS011;41041;43.162;20.538;2022-12-08T03:58:03;16.55;;;9.35;;
55150;SDS011;41041;43.162;20.538;2022-12-08T04:00:40;15.32;;;9.32;;
55150;SDS011;41041;43.162;20.538;2022-12-08T04:03:06;13.60;;;9.00;;
55150;SDS011;41041;43.162;20.538;2022-12-08T04:05:32;14.70;;;8.60;;
55150;SDS011;41041;43.162;20.538;2022-12-08T04:07:58;15.10;;;9.18;;
55150;SDS011;41041;43.162;20.538;2022-12-08T04:10:27;13.25;;;8.63;;
55150;SDS011;41041;43.162;20.538;2022-12-08T04:12:52;13.52;;;8.73;;
55150;SDS011;41041;43.162;20.538;2022-12-08T04:15:18;14.52;;;9.40;;
55150;SDS011;41041;43.162;20.538;2022-12-08T04:17:44;14.48;;;9.35;;
55150;SDS011;41041;43.162;20.538;2022-12-08T04:20:09;13.52;;;9.18;;
55150;SDS011;41041;43.162;20.538;2022-12-08T04:22:35;15.32;;;9.65;;
55150;SDS011;41041;43.162;20.538;2022-12-08T04:25:01;16.33;;;9.85;;
55150;SDS011;41041;43.162;20.538;2022-12-08T04:27:27;17.33;;;10.18;;
55150;SDS011;41041;43.162;20.538;2022-12-08T04:29:54;16.08;;;10.38;;
55150;SDS011;41041;43.162;20.538;2022-12-08T04:32:19;15.52;;;9.55;;
55150;SDS011;41041;43.162;20.538;2022-12-08T04:34:45;15.43;;;10.15;;
55150;SDS011;41041;43.162;20.538;2022-12-08T04:37:11;12.63;;;8.77;;
55150;SDS011;41041;43.162;20.538;2022-12-08T04:42:05;12.73;;;9.10;;
55150;SDS011;41041;43.162;20.538;2022-12-08T04:44:31;16.08;;;10.00;;
55150;SDS011;41041;43.162;20.538;2022-12-08T04:46:56;17.80;;;9.77;;
55150;SDS011;41041;43.162;20.538;2022-12-08T04:49:22;13.40;;;9.55;;
55150;SDS011;41041;43.162;20.538;2022-12-08T04:51:48;14.25;;;10.38;;
55150;SDS011;41041;43.162;20.538;2022-12-08T04:54:13;14.60;;;9.68;;
55150;SDS011;41041;43.162;20.538;2022-12-08T04:56:39;17.13;;;10.05;;
55150;SDS011;41041;43.162;20.538;2022-12-08T04:59:05;18.15;;;10.55;;
55150;SDS011;41041;43.162;20.538;2022-12-08T05:01:30;15.18;;;10.05;;
55150;SDS011;41041;43.162;20.538;2022-12-08T05:03:56;14.75;;;9.82;;
55150;SDS011;41041;43.162;20.538;2022-12-08T05:06:22;14.45;;;10.52;;
55150;SDS011;41041;43.162;20.538;2022-12-08T05:08:48;18.08;;;10.65;;
55150;SDS011;41041;43.162;20.538;2022-12-08T05:11:14;17.75;;;10.90;;
55150;SDS011;41041;43.162;20.538;2022-12-08T05:13:39;19.58;;;13.13;;
55150;SDS011;41041;43.162;20.538;2022-12-08T05:16:06;19.15;;;11.15;;
55150;SDS011;41041;43.162;20.538;2022-12-08T05:18:34;20.00;;;11.90;;
55150;SDS011;41041;43.162;20.538;2022-12-08T05:20:59;19.67;;;11.93;;
55150;SDS011;41041;43.162;20.538;2022-12-08T05:23:25;21.25;;;11.88;;
55150;SDS011;41041;43.162;20.538;2022-12-08T05:25:51;17.85;;;11.82;;
55150;SDS011;41041;43.162;20.538;2022-12-08T05:28:17;17.88;;;11.90;;
55150;SDS011;41041;43.162;20.538;2022-12-08T05:30:45;18.83;;;12.02;;
55150;SDS011;41041;43.162;20.538;2022-12-08T05:33:11;20.02;;;12.25;;
55150;SDS011;41041;43.162;20.538;2022-12-08T05:35:37;17.38;;;10.40;;
55150;SDS011;41041;43.162;20.538;2022-12-08T05:38:02;15.98;;;11.15;;
55150;SDS011;41041;43.162;20.538;2022-12-08T05:40:29;18.35;;;11.52;;
55150;SDS011;41041;43.162;20.538;2022-12-08T05:42:55;21.90;;;11.23;;
55150;SDS011;41041;43.162;20.538;2022-12-08T05:45:21;18.63;;;11.32;;
55150;SDS011;41041;43.162;20.538;2022-12-08T05:47:47;16.20;;;10.40;;
55150;SDS011;41041;43.162;20.538;2022-12-08T05:50:13;15.90;;;10.27;;
55150;SDS011;41041;43.162;20.538;2022-12-08T05:52:39;18.58;;;10.88;;
55150;SDS011;41041;43.162;20.538;2022-12-08T05:55:05;20.75;;;12.10;;
55150;SDS011;41041;43.162;20.538;2022-12-08T05:57:31;19.60;;;11.18;;
55150;SDS011;41041;43.162;20.538;2022-12-08T05:59:57;17.88;;;10.57;;
55150;SDS011;41041;43.162;20.538;2022-12-08T06:02:24;15.93;;;10.43;;
55150;SDS011;41041;43.162;20.538;2022-12-08T06:04:50;14.93;;;10.68;;
55150;SDS011;41041;43.162;20.538;2022-12-08T06:07:16;17.95;;;11.18;;
55150;SDS011;41041;43.162;20.538;2022-12-08T06:09:49;16.67;;;11.02;;
55150;SDS011;41041;43.162;20.538;2022-12-08T06:12:15;16.92;;;10.70;;
55150;SDS011;41041;43.162;20.538;2022-12-08T06:14:41;18.92;;;13.20;;
55150;SDS011;41041;43.162;20.538;2022-12-08T06:17:07;17.98;;;11.30;;
55150;SDS011;41041;43.162;20.538;2022-12-08T06:19:33;16.15;;;10.68;;
55150;SDS011;41041;43.162;20.538;2022-12-08T06:21:59;19.50;;;10.90;;
55150;SDS011;41041;43.162;20.538;2022-12-08T06:24:25;18.05;;;11.23;;
55150;SDS011;41041;43.162;20.538;2022-12-08T06:26:51;18.13;;;12.20;;
55150;SDS011;41041;43.162;20.538;2022-12-08T06:29:17;18.98;;;12.85;;
55150;SDS011;41041;43.162;20.538;2022-12-08T06:31:43;18.58;;;12.15;;
55150;SDS011;41041;43.162;20.538;2022-12-08T06:34:09;16.88;;;11.65;;
55150;SDS011;41041;43.162;20.538;2022-12-08T06:36:35;18.83;;;11.50;;
55150;SDS011;41041;43.162;20.538;2022-12-08T06:39:01;31.25;;;17.05;;
55150;SDS011;41041;43.162;20.538;2022-12-08T06:41:27;24.92;;;14.30;;
55150;SDS011;41041;43.162;20.538;2022-12-08T06:43:57;21.77;;;12.25;;
55150;SDS011;41041;43.162;20.538;2022-12-08T06:46:23;19.77;;;12.73;;
55150;SDS011;41041;43.162;20.538;2022-12-08T06:48:49;17.73;;;11.13;;
55150;SDS011;41041;43.162;20.538;2022-12-08T06:51:19;26.38;;;19.05;;
55150;SDS011;41041;43.162;20.538;2022-12-08T06:53:46;24.40;;;15.55;;
55150;SDS011;41041;43.162;20.538;2022-12-08T06:56:13;25.15;;;17.08;;
55150;SDS011;41041;43.162;20.538;2022-12-08T06:58:39;20.83;;;14.25;;
55150;SDS011;41041;43.162;20.538;2022-12-08T07:01:09;23.38;;;14.02;;
55150;SDS011;41041;43.162;20.538;2022-12-08T07:03:36;23.13;;;15.80;;
55150;SDS011;41041;43.162;20.538;2022-12-08T07:06:03;21.40;;;14.77;;
55150;SDS011;41041;43.162;20.538;2022-12-08T07:08:29;24.00;;;17.85;;
55150;SDS011;41041;43.162;20.538;2022-12-08T07:10:55;22.15;;;14.60;;
55150;SDS011;41041;43.162;20.538;2022-12-08T07:13:21;30.38;;;16.27;;
55150;SDS011;41041;43.162;20.538;2022-12-08T07:15:47;31.73;;;19.15;;
55150;SDS011;41041;43.162;20.538;2022-12-08T07:18:13;35.58;;;22.23;;
55150;SDS011;41041;43.162;20.538;2022-12-08T07:20:39;38.20;;;23.50;;
55150;SDS011;41041;43.162;20.538;2022-12-08T07:23:05;47.08;;;28.70;;
55150;SDS011;41041;43.162;20.538;2022-12-08T07:25:31;54.35;;;33.15;;
55150;SDS011;41041;43.162;20.538;2022-12-08T07:27:57;55.10;;;34.00;;
55150;SDS011;41041;43.162;20.538;2022-12-08T07:30:23;54.08;;;32.50;;
55150;SDS011;41041;43.162;20.538;2022-12-08T07:32:49;47.17;;;29.95;;
55150;SDS011;41041;43.162;20.538;2022-12-08T07:35:15;46.38;;;30.40;;
55150;SDS011;41041;43.162;20.538;2022-12-08T07:37:41;55.70;;;33.10;;
55150;SDS011;41041;43.162;20.538;2022-12-08T07:40:08;56.47;;;34.40;;
55150;SDS011;41041;43.162;20.538;2022-12-08T07:42:34;51.90;;;32.70;;
55150;SDS011;41041;43.162;20.538;2022-12-08T07:45:00;63.95;;;35.33;;
55150;SDS011;41041;43.162;20.538;2022-12-08T07:50:05;64.88;;;37.58;;
55150;SDS011;41041;43.162;20.538;2022-12-08T07:52:32;66.40;;;37.60;;
55150;SDS011;41041;43.162;20.538;2022-12-08T07:54:59;65.38;;;37.08;;
55150;SDS011;41041;43.162;20.538;2022-12-08T07:57:25;59.70;;;34.45;;
55150;SDS011;41041;43.162;20.538;2022-12-08T07:59:51;61.00;;;33.40;;
55150;SDS011;41041;43.162;20.538;2022-12-08T08:02:17;53.60;;;29.77;;
55150;SDS011;41041;43.162;20.538;2022-12-08T08:04:43;49.25;;;28.15;;
55150;SDS011;41041;43.162;20.538;2022-12-08T08:07:10;83.40;;;47.53;;
55150;SDS011;41041;43.162;20.538;2022-12-08T08:09:36;87.15;;;48.95;;
55150;SDS011;41041;43.162;20.538;2022-12-08T08:12:02;96.63;;;55.08;;
55150;SDS011;41041;43.162;20.538;2022-12-08T08:14:35;98.90;;;55.75;;
55150;SDS011;41041;43.162;20.538;2022-12-08T08:17:01;87.95;;;49.17;;
55150;SDS011;41041;43.162;20.538;2022-12-08T08:19:27;89.07;;;49.72;;
55150;SDS011;41041;43.162;20.538;2022-12-08T08:21:53;96.60;;;51.85;;
55150;SDS011;41041;43.162;20.538;2022-12-08T08:24:19;78.28;;;42.13;;
55150;SDS011;41041;43.162;20.538;2022-12-08T08:26:46;87.38;;;49.50;;
55150;SDS011;41041;43.162;20.538;2022-12-08T08:29:12;94.88;;;53.80;;
55150;SDS011;41041;43.162;20.538;2022-12-08T08:31:38;92.97;;;51.08;;
55150;SDS011;41041;43.162;20.538;2022-12-08T08:34:04;103.15;;;56.40;;
55150;SDS011;41041;43.162;20.538;2022-12-08T08:36:30;106.90;;;56.83;;
55150;SDS011;41041;43.162;20.538;2022-12-08T08:38:56;148.38;;;79.93;;
55150;SDS011;41041;43.162;20.538;2022-12-08T08:41:22;109.85;;;59.35;;
55150;SDS011;41041;43.162;20.538;2022-12-08T08:43:48;106.50;;;56.58;;
55150;SDS011;41041;43.162;20.538;2022-12-08T08:46:14;104.75;;;56.78;;
55150;SDS011;41041;43.162;20.538;2022-12-08T08:48:40;107.63;;;58.67;;
55150;SDS011;41041;43.162;20.538;2022-12-08T08:51:07;109.10;;;57.67;;
55150;SDS011;41041;43.162;20.538;2022-12-08T08:53:34;115.97;;;60.38;;
55150;SDS011;41041;43.162;20.538;2022-12-08T08:56:01;108.50;;;58.35;;
55150;SDS011;41041;43.162;20.538;2022-12-08T08:58:29;113.38;;;61.35;;
55150;SDS011;41041;43.162;20.538;2022-12-08T09:00:57;112.55;;;62.33;;
55150;SDS011;41041;43.162;20.538;2022-12-08T09:05:53;116.85;;;60.70;;
55150;SDS011;41041;43.162;20.538;2022-12-08T09:08:19;108.40;;;59.05;;
55150;SDS011;41041;43.162;20.538;2022-12-08T09:10:45;112.25;;;62.95;;
55150;SDS011;41041;43.162;20.538;2022-12-08T09:13:11;107.43;;;58.70;;
55150;SDS011;41041;43.162;20.538;2022-12-08T09:15:38;84.40;;;47.00;;
55150;SDS011;41041;43.162;20.538;2022-12-08T09:18:04;76.78;;;44.97;;
55150;SDS011;41041;43.162;20.538;2022-12-08T09:20:33;108.30;;;58.78;;
55150;SDS011;41041;43.162;20.538;2022-12-08T09:22:59;125.65;;;67.68;;
55150;SDS011;41041;43.162;20.538;2022-12-08T09:25:25;97.38;;;57.58;;
55150;SDS011;41041;43.162;20.538;2022-12-08T09:28:05;76.55;;;43.40;;
55150;SDS011;41041;43.162;20.538;2022-12-08T09:30:31;71.28;;;41.88;;
55150;SDS011;41041;43.162;20.538;2022-12-08T09:32:57;63.88;;;37.88;;
55150;SDS011;41041;43.162;20.538;2022-12-08T09:35:25;60.85;;;35.55;;
55150;SDS011;41041;43.162;20.538;2022-12-08T09:37:51;60.65;;;35.53;;
55150;SDS011;41041;43.162;20.538;2022-12-08T09:40:19;61.90;;;36.90;;
55150;SDS011;41041;43.162;20.538;2022-12-08T09:42:48;65.03;;;36.85;;
55150;SDS011;41041;43.162;20.538;2022-12-08T09:45:18;67.35;;;38.83;;
55150;SDS011;41041;43.162;20.538;2022-12-08T09:47:52;68.90;;;41.97;;
55150;SDS011;41041;43.162;20.538;2022-12-08T09:50:31;68.53;;;41.17;;
55150;SDS011;41041;43.162;20.538;2022-12-08T09:53:02;67.93;;;40.22;;
55150;SDS011;41041;43.162;20.538;2022-12-08T09:58:02;60.22;;;37.50;;
55150;SDS011;41041;43.162;20.538;2022-12-08T10:00:37;63.85;;;37.30;;
55150;SDS011;41041;43.162;20.538;2022-12-08T10:03:03;72.13;;;42.53;;
55150;SDS011;41041;43.162;20.538;2022-12-08T10:05:36;68.05;;;40.83;;
55150;SDS011;41041;43.162;20.538;2022-12-08T10:13:45;65.07;;;38.60;;
55150;SDS011;41041;43.162;20.538;2022-12-08T10:16:26;59.45;;;35.97;;
55150;SDS011;41041;43.162;20.538;2022-12-08T10:19:38;56.03;;;33.77;;
55150;SDS011;41041;43.162;20.538;2022-12-08T10:21:49;57.60;;;34.97;;
55150;SDS011;41041;43.162;20.538;2022-12-08T10:24:39;58.13;;;33.92;;
55150;SDS011;41041;43.162;20.538;2022-12-08T10:27:09;58.50;;;34.43;;
55150;SDS011;41041;43.162;20.538;2022-12-08T10:29:38;54.22;;;33.28;;
55150;SDS011;41041;43.162;20.538;2022-12-08T10:32:23;59.25;;;34.35;;
55150;SDS011;41041;43.162;20.538;2022-12-08T10:35:06;57.83;;;34.47;;
55150;SDS011;41041;43.162;20.538;2022-12-08T10:37:35;52.85;;;31.98;;
55150;SDS011;41041;43.162;20.538;2022-12-08T10:42:40;56.75;;;33.72;;
55150;SDS011;41041;43.162;20.538;2022-12-08T10:47:37;45.67;;;28.35;;
55150;SDS011;41041;43.162;20.538;2022-12-08T10:50:08;51.35;;;29.60;;
55150;SDS011;41041;43.162;20.538;2022-12-08T10:55:02;50.28;;;30.05;;
55150;SDS011;41041;43.162;20.538;2022-12-08T10:57:28;55.10;;;31.50;;
55150;SDS011;41041;43.162;20.538;2022-12-08T10:59:54;51.17;;;32.20;;
55150;SDS011;41041;43.162;20.538;2022-12-08T11:02:20;51.22;;;31.48;;
55150;SDS011;41041;43.162;20.538;2022-12-08T11:04:46;51.45;;;30.95;;
55150;SDS011;41041;43.162;20.538;2022-12-08T11:07:23;51.78;;;30.67;;
55150;SDS011;41041;43.162;20.538;2022-12-08T11:09:51;54.08;;;29.55;;
55150;SDS011;41041;43.162;20.538;2022-12-08T11:12:18;50.75;;;28.65;;
55150;SDS011;41041;43.162;20.538;2022-12-08T11:14:49;52.65;;;29.00;;
55150;SDS011;41041;43.162;20.538;2022-12-08T11:17:17;53.13;;;25.92;;
55150;SDS011;41041;43.162;20.538;2022-12-08T11:19:59;39.47;;;23.67;;
55150;SDS011;41041;43.162;20.538;2022-12-08T11:22:44;44.55;;;24.85;;
55150;SDS011;41041;43.162;20.538;2022-12-08T11:25:14;40.20;;;22.75;;
55150;SDS011;41041;43.162;20.538;2022-12-08T11:27:42;32.63;;;19.00;;
55150;SDS011;41041;43.162;20.538;2022-12-08T11:32:44;43.58;;;23.33;;
55150;SDS011;41041;43.162;20.538;2022-12-08T11:35:16;37.25;;;21.05;;
55150;SDS011;41041;43.162;20.538;2022-12-08T11:37:43;39.70;;;20.50;;
55150;SDS011;41041;43.162;20.538;2022-12-08T11:40:33;40.75;;;21.75;;
55150;SDS011;41041;43.162;20.538;2022-12-08T11:45:32;38.47;;;21.45;;
55150;SDS011;41041;43.162;20.538;2022-12-08T11:48:04;35.20;;;20.60;;
55150;SDS011;41041;43.162;20.538;2022-12-08T11:50:38;47.65;;;22.23;;
55150;SDS011;41041;43.162;20.538;2022-12-08T11:53:05;44.30;;;24.35;;
55150;SDS011;41041;43.162;20.538;2022-12-08T11:58:10;44.47;;;27.77;;
55150;SDS011;41041;43.162;20.538;2022-12-08T12:00:37;41.42;;;22.90;;
55150;SDS011;41041;43.162;20.538;2022-12-08T12:03:08;37.30;;;22.85;;
55150;SDS011;41041;43.162;20.538;2022-12-08T12:21:12;37.30;;;21.80;;
55150;SDS011;41041;43.162;20.538;2022-12-08T12:23:47;39.80;;;22.20;;
55150;SDS011;41041;43.162;20.538;2022-12-08T12:26:18;43.15;;;23.55;;
55150;SDS011;41041;43.162;20.538;2022-12-08T12:29:28;55.97;;;31.17;;
55150;SDS011;41041;43.162;20.538;2022-12-08T12:31:36;62.42;;;36.13;;
55150;SDS011;41041;43.162;20.538;2022-12-08T12:50:06;63.30;;;41.33;;
55150;SDS011;41041;43.162;20.538;2022-12-08T12:57:34;58.75;;;33.90;;
55150;SDS011;41041;43.162;20.538;2022-12-08T13:02:33;69.47;;;39.08;;
55150;SDS011;41041;43.162;20.538;2022-12-08T13:21:11;73.35;;;41.80;;
55150;SDS011;41041;43.162;20.538;2022-12-08T13:23:45;70.65;;;41.08;;
55150;SDS011;41041;43.162;20.538;2022-12-08T13:36:35;70.40;;;40.80;;
55150;SDS011;41041;43.162;20.538;2022-12-08T13:42:14;77.88;;;47.50;;
55150;SDS011;41041;43.162;20.538;2022-12-08T13:47:41;83.20;;;52.70;;
55150;SDS011;41041;43.162;20.538;2022-12-08T13:50:19;82.13;;;51.17;;
55150;SDS011;41041;43.162;20.538;2022-12-08T13:53:09;65.32;;;39.05;;
55150;SDS011;41041;43.162;20.538;2022-12-08T13:55:43;59.63;;;37.15;;
55150;SDS011;41041;43.162;20.538;2022-12-08T14:00:36;78.50;;;45.95;;
55150;SDS011;41041;43.162;20.538;2022-12-08T14:03:12;71.05;;;43.70;;
55150;SDS011;41041;43.162;20.538;2022-12-08T14:05:40;71.65;;;42.85;;
55150;SDS011;41041;43.162;20.538;2022-12-08T14:08:16;71.60;;;44.00;;
55150;SDS011;41041;43.162;20.538;2022-12-08T14:10:47;67.53;;;41.10;;
55150;SDS011;41041;43.162;20.538;2022-12-08T14:13:22;61.20;;;36.95;;
55150;SDS011;41041;43.162;20.538;2022-12-08T14:18:37;69.53;;;42.25;;
55150;SDS011;41041;43.162;20.538;2022-12-08T14:21:05;74.75;;;45.70;;
55150;SDS011;41041;43.162;20.538;2022-12-08T14:23:35;84.32;;;49.97;;
55150;SDS011;41041;43.162;20.538;2022-12-08T14:29:06;66.18;;;40.13;;
55150;SDS011;41041;43.162;20.538;2022-12-08T14:31:38;84.93;;;51.10;;
55150;SDS011;41041;43.162;20.538;2022-12-08T14:34:27;79.75;;;47.45;;
55150;SDS011;41041;43.162;20.538;2022-12-08T14:37:09;80.82;;;49.35;;
55150;SDS011;41041;43.162;20.538;2022-12-08T14:42:44;79.60;;;48.17;;
55150;SDS011;41041;43.162;20.538;2022-12-08T14:45:16;88.68;;;54.15;;
55150;SDS011;41041;43.162;20.538;2022-12-08T14:47:45;95.57;;;58.42;;
55150;SDS011;41041;43.162;20.538;2022-12-08T14:50:35;102.57;;;62.75;;
55150;SDS011;41041;43.162;20.538;2022-12-08T14:59:33;97.78;;;62.72;;
55150;SDS011;41041;43.162;20.538;2022-12-08T15:20:23;112.50;;;68.18;;
55150;SDS011;41041;43.162;20.538;2022-12-08T15:26:31;101.25;;;63.83;;
55150;SDS011;41041;43.162;20.538;2022-12-08T15:35:44;82.63;;;49.15;;
55150;SDS011;41041;43.162;20.538;2022-12-08T15:41:50;87.60;;;51.53;;
55150;SDS011;41041;43.162;20.538;2022-12-08T15:47:57;85.00;;;51.25;;
55150;SDS011;41041;43.162;20.538;2022-12-08T15:56:32;78.68;;;45.00;;
55150;SDS011;41041;43.162;20.538;2022-12-08T15:58:58;87.43;;;48.85;;
55150;SDS011;41041;43.162;20.538;2022-12-08T16:01:30;128.02;;;72.93;;
55150;SDS011;41041;43.162;20.538;2022-12-08T16:04:04;122.30;;;66.75;;
55150;SDS011;41041;43.162;20.538;2022-12-08T16:06:44;120.18;;;61.53;;
55150;SDS011;41041;43.162;20.538;2022-12-08T16:09:36;112.85;;;61.85;;
55150;SDS011;41041;43.162;20.538;2022-12-08T16:18:47;103.15;;;61.83;;
55150;SDS011;41041;43.162;20.538;2022-12-08T16:21:31;103.20;;;59.75;;
55150;SDS011;41041;43.162;20.538;2022-12-08T16:24:03;97.82;;;57.13;;
55150;SDS011;41041;43.162;20.538;2022-12-08T16:26:37;103.05;;;62.10;;
55150;SDS011;41041;43.162;20.538;2022-12-08T16:29:08;93.43;;;55.70;;
55150;SDS011;41041;43.162;20.538;2022-12-08T16:31:38;102.50;;;60.13;;
55150;SDS011;41041;43.162;20.538;2022-12-08T16:34:24;115.75;;;66.55;;
55150;SDS011;41041;43.162;20.538;2022-12-08T16:37:04;117.93;;;68.60;;
55150;SDS011;41041;43.162;20.538;2022-12-08T16:39:30;73.78;;;42.88;;
55150;SDS011;41041;43.162;20.538;2022-12-08T16:41:56;96.53;;;57.30;;
55150;SDS011;41041;43.162;20.538;2022-12-08T16:44:41;99.47;;;58.60;;
55150;SDS011;41041;43.162;20.538;2022-12-08T16:47:07;100.68;;;61.72;;
55150;SDS011;41041;43.162;20.538;2022-12-08T16:49:36;99.30;;;62.13;;
55150;SDS011;41041;43.162;20.538;2022-12-08T16:52:03;96.50;;;58.97;;
55150;SDS011;41041;43.162;20.538;2022-12-08T16:54:29;107.95;;;65.32;;
55150;SDS011;41041;43.162;20.538;2022-12-08T16:56:55;115.38;;;70.93;;
55150;SDS011;41041;43.162;20.538;2022-12-08T16:59:27;113.75;;;71.30;;
55150;SDS011;41041;43.162;20.538;2022-12-08T17:01:55;119.22;;;71.38;;
55150;SDS011;41041;43.162;20.538;2022-12-08T17:04:21;117.32;;;71.65;;
55150;SDS011;41041;43.162;20.538;2022-12-08T17:06:49;116.80;;;71.40;;
55150;SDS011;41041;43.162;20.538;2022-12-08T17:09:23;126.05;;;78.53;;
55150;SDS011;41041;43.162;20.538;2022-12-08T17:14:58;123.97;;;75.97;;
55150;SDS011;41041;43.162;20.538;2022-12-08T17:17:46;149.50;;;94.13;;
55150;SDS011;41041;43.162;20.538;2022-12-08T17:20:30;137.35;;;84.20;;
55150;SDS011;41041;43.162;20.538;2022-12-08T17:22:58;112.20;;;68.07;;
55150;SDS011;41041;43.162;20.538;2022-12-08T17:25:55;98.13;;;57.60;;
55150;SDS011;41041;43.162;20.538;2022-12-08T17:31:29;75.20;;;44.05;;
55150;SDS011;41041;43.162;20.538;2022-12-08T17:34:03;75.55;;;43.60;;
55150;SDS011;41041;43.162;20.538;2022-12-08T17:42:56;62.53;;;38.90;;
55150;SDS011;41041;43.162;20.538;2022-12-08T17:45:52;68.78;;;39.72;;
55150;SDS011;41041;43.162;20.538;2022-12-08T17:48:31;67.40;;;38.33;;
55150;SDS011;41041;43.162;20.538;2022-12-08T17:54:08;71.05;;;40.70;;
55150;SDS011;41041;43.162;20.538;2022-12-08T17:56:39;82.85;;;46.35;;
55150;SDS011;41041;43.162;20.538;2022-12-08T17:59:05;70.03;;;41.67;;